createdAt,value
2023-05-15T00:00:31.109Z,16.00
2023-05-15T00:02:59.048Z,16.00
2023-05-15T00:05:27.094Z,15.80
2023-05-15T00:07:54.988Z,15.70
2023-05-15T00:10:22.845Z,15.70
2023-05-15T00:12:50.557Z,15.70
2023-05-15T00:15:18.499Z,15.50
2023-05-15T00:17:46.284Z,15.60
2023-05-15T00:20:14.160Z,15.50
2023-05-15T00:22:41.927Z,15.70
2023-05-15T00:25:10.894Z,15.20
2023-05-15T00:27:38.551Z,15.60
2023-05-15T00:30:08.922Z,15.60
2023-05-15T00:32:36.688Z,15.60
2023-05-15T00:35:06.359Z,15.80
2023-05-15T00:37:34.089Z,15.70
2023-05-15T00:40:01.886Z,15.60
2023-05-15T00:42:30.232Z,15.40
2023-05-15T00:45:01.165Z,15.60
2023-05-15T00:47:30.240Z,15.60
2023-05-15T00:49:58.798Z,15.40
2023-05-15T00:52:27.054Z,15.40
2023-05-15T00:54:54.753Z,15.20
2023-05-15T00:57:25.121Z,15.20
2023-05-15T00:59:54.158Z,15.30
2023-05-15T01:02:22.263Z,15.40
2023-05-15T01:04:50.335Z,15.40
2023-05-15T01:07:18.170Z,15.50
2023-05-15T01:09:48.989Z,15.30
2023-05-15T01:12:18.386Z,15.10
2023-05-15T01:14:46.145Z,15.30
2023-05-15T01:17:13.836Z,15.40
2023-05-15T01:19:43.026Z,15.50
2023-05-15T01:22:44.409Z,15.40
2023-05-15T01:25:53.355Z,15.40
2023-05-15T01:28:26.896Z,15.60
2023-05-15T01:30:57.076Z,15.20
2023-05-15T01:33:28.553Z,15.10
2023-05-15T01:36:05.227Z,15.00
2023-05-15T01:38:38.915Z,14.90
2023-05-15T01:41:15.282Z,14.80
2023-05-15T01:43:45.494Z,15.00
2023-05-15T01:46:15.223Z,15.00
2023-05-15T01:48:44.909Z,14.90
2023-05-15T01:51:14.584Z,14.90
2023-05-15T01:53:43.460Z,14.90
2023-05-15T01:56:14.899Z,14.70
2023-05-15T01:58:44.311Z,14.80
2023-05-15T02:01:13.452Z,14.90
2023-05-15T02:03:42.174Z,14.80
2023-05-15T02:06:10.584Z,14.90
2023-05-15T02:08:39.273Z,14.90
2023-05-15T02:11:08.200Z,15.00
2023-05-15T02:13:37.296Z,14.70
2023-05-15T02:16:06.164Z,15.10
2023-05-15T02:18:35.305Z,14.90
2023-05-15T02:21:03.567Z,14.90
2023-05-15T02:23:31.238Z,14.90
2023-05-15T02:26:13.718Z,14.80
2023-05-15T02:28:52.747Z,14.70
2023-05-15T02:31:30.120Z,14.70
2023-05-15T02:34:08.846Z,14.80
2023-05-15T02:36:40.151Z,14.70
2023-05-15T02:39:09.491Z,14.70
2023-05-15T02:41:37.906Z,15.00
2023-05-15T02:44:07.063Z,14.90
2023-05-15T02:46:36.100Z,14.90
2023-05-15T02:49:04.912Z,14.70
2023-05-15T02:51:32.968Z,14.80
2023-05-15T02:54:01.341Z,14.60
2023-05-15T02:56:29.086Z,14.70
2023-05-15T02:58:57.091Z,15.00
2023-05-15T03:01:24.837Z,14.60
2023-05-15T03:03:52.706Z,14.60
2023-05-15T03:06:20.719Z,14.60
2023-05-15T03:08:48.503Z,14.50
2023-05-15T03:11:18.482Z,14.30
2023-05-15T03:16:33.795Z,14.30
2023-05-15T03:19:01.545Z,14.30
2023-05-15T03:21:29.449Z,14.40
2023-05-15T03:23:57.163Z,14.00
2023-05-15T03:26:25.080Z,14.10
2023-05-15T03:28:52.791Z,14.50
2023-05-15T03:31:20.528Z,14.10
2023-05-15T03:33:50.669Z,14.10
2023-05-15T03:36:18.387Z,14.00
2023-05-15T03:38:46.366Z,14.00
2023-05-15T03:41:14.137Z,14.10
2023-05-15T03:43:41.865Z,13.90
2023-05-15T03:46:09.597Z,14.00
2023-05-15T03:48:37.348Z,14.00
2023-05-15T03:51:05.345Z,13.90
2023-05-15T03:53:33.172Z,13.80
2023-05-15T03:56:00.961Z,13.70
2023-05-15T03:58:31.375Z,13.80
2023-05-15T04:00:59.235Z,13.80
2023-05-15T04:03:27.026Z,15.40
2023-05-15T04:05:54.980Z,14.20
2023-05-15T04:08:22.669Z,14.10
2023-05-15T04:10:51.209Z,13.90
2023-05-15T04:13:19.512Z,14.00
2023-05-15T04:15:48.083Z,14.20
2023-05-15T04:18:15.772Z,14.00
2023-05-15T04:20:43.618Z,14.00
2023-05-15T04:23:11.309Z,14.00
2023-05-15T04:25:41.806Z,13.90
2023-05-15T04:28:09.769Z,14.00
2023-05-15T04:30:37.636Z,14.00
2023-05-15T04:33:05.686Z,14.00
2023-05-15T04:35:33.890Z,14.00
2023-05-15T04:38:01.632Z,13.90
2023-05-15T04:40:29.604Z,13.80
2023-05-15T04:42:57.973Z,14.10
2023-05-15T04:45:25.966Z,13.80
2023-05-15T04:47:54.010Z,13.90
2023-05-15T04:50:22.596Z,13.90
2023-05-15T04:52:51.211Z,14.00
2023-05-15T04:55:19.173Z,13.90
2023-05-15T04:57:47.558Z,14.00
2023-05-15T05:00:16.951Z,14.00
2023-05-15T05:02:44.958Z,13.90
2023-05-15T05:05:14.005Z,13.80
2023-05-15T05:07:43.649Z,13.90
2023-05-15T05:13:01.279Z,13.70
2023-05-15T05:15:29.021Z,13.90
2023-05-15T05:17:56.777Z,13.90
2023-05-15T05:20:25.041Z,13.80
2023-05-15T05:22:52.712Z,13.60
2023-05-15T05:25:21.106Z,13.60
2023-05-15T05:27:48.786Z,13.70
2023-05-15T05:30:17.305Z,13.80
2023-05-15T05:32:45.159Z,13.70
2023-05-15T05:35:13.371Z,13.70
2023-05-15T05:37:41.641Z,13.70
2023-05-15T05:40:11.822Z,14.00
2023-05-15T05:42:39.538Z,13.80
2023-05-15T05:45:09.895Z,13.80
2023-05-15T05:47:37.630Z,13.90
2023-05-15T05:50:08.515Z,13.80
2023-05-15T05:52:36.304Z,13.80
2023-05-15T05:55:05.349Z,13.70
2023-05-15T05:57:33.216Z,13.70
2023-05-15T06:00:01.017Z,13.70
2023-05-15T06:05:16.476Z,13.70
2023-05-15T06:07:44.403Z,14.00
2023-05-15T06:10:13.181Z,13.80
2023-05-15T06:12:41.032Z,13.90
2023-05-15T06:15:11.039Z,13.90
2023-05-15T06:17:39.099Z,13.80
2023-05-15T06:20:09.260Z,13.80
2023-05-15T06:22:37.228Z,13.90
2023-05-15T06:25:10.636Z,13.70
2023-05-15T06:27:38.341Z,13.60
2023-05-15T06:30:08.573Z,13.70
2023-05-15T06:32:36.415Z,13.80
2023-05-15T06:35:05.484Z,13.70
2023-05-15T06:37:33.406Z,13.80
2023-05-15T06:42:48.096Z,13.90
2023-05-15T06:48:05.406Z,13.90
2023-05-15T06:50:33.176Z,14.00
2023-05-15T06:53:00.967Z,14.10
2023-05-15T06:55:28.643Z,13.90
2023-05-15T06:57:56.441Z,14.10
2023-05-15T07:00:24.218Z,14.00
2023-05-15T07:02:51.989Z,14.20
2023-05-15T07:05:21.123Z,14.20
2023-05-15T07:07:48.858Z,14.20
2023-05-15T07:10:16.880Z,14.10
2023-05-15T07:12:44.612Z,14.20
2023-05-15T07:15:12.918Z,14.20
2023-05-15T07:17:40.869Z,14.20
2023-05-15T07:20:10.156Z,14.40
2023-05-15T07:22:44.651Z,14.40
2023-05-15T07:25:20.070Z,14.30
2023-05-15T07:27:47.843Z,14.40
2023-05-15T07:30:16.228Z,14.50
2023-05-15T07:32:44.067Z,14.30
2023-05-15T07:35:11.888Z,14.40
2023-05-15T07:37:40.674Z,14.40
2023-05-15T07:40:10.245Z,14.30
2023-05-15T07:42:39.127Z,14.30
2023-05-15T07:45:09.535Z,14.30
2023-05-15T07:47:37.555Z,14.20
2023-05-15T07:50:07.202Z,14.10
2023-05-15T07:52:35.093Z,14.20
2023-05-15T07:55:03.777Z,14.40
2023-05-15T07:57:31.663Z,14.50
2023-05-15T07:59:59.543Z,14.20
2023-05-15T08:02:27.468Z,14.10
2023-05-15T08:04:55.403Z,14.20
2023-05-15T08:07:23.842Z,14.20
2023-05-15T08:09:51.680Z,14.30
2023-05-15T08:12:21.462Z,14.40
2023-05-15T08:14:50.567Z,14.30
2023-05-15T08:17:18.962Z,14.40
2023-05-15T08:19:47.161Z,14.50
2023-05-15T08:22:15.246Z,14.50
2023-05-15T08:24:44.168Z,14.60
2023-05-15T08:27:12.051Z,14.80
2023-05-15T08:29:39.976Z,14.70
2023-05-15T08:32:08.662Z,14.80
2023-05-15T08:34:36.606Z,14.70
2023-05-15T08:37:05.977Z,14.70
2023-05-15T08:39:33.701Z,14.60
2023-05-15T08:42:08.255Z,14.70
2023-05-15T08:44:37.267Z,14.80
2023-05-15T08:47:06.507Z,14.70
2023-05-15T08:49:43.415Z,14.70
2023-05-15T08:54:57.714Z,14.90
2023-05-15T08:57:27.330Z,15.00
2023-05-15T08:59:56.392Z,15.00
2023-05-15T09:02:25.454Z,15.00
2023-05-15T09:04:53.238Z,14.70
2023-05-15T09:07:22.529Z,14.90
2023-05-15T09:09:51.273Z,14.90
2023-05-15T09:12:20.221Z,14.90
2023-05-15T09:14:48.602Z,14.80
2023-05-15T09:17:16.381Z,14.90
2023-05-15T09:19:44.187Z,14.90
2023-05-15T09:25:04.606Z,14.90
2023-05-15T09:27:42.740Z,15.10
2023-05-15T09:30:12.151Z,15.10
2023-05-15T09:32:40.048Z,15.10
2023-05-15T09:35:29.395Z,15.10
2023-05-15T09:38:00.725Z,15.20
2023-05-15T09:40:30.973Z,15.20
2023-05-15T09:42:59.253Z,15.20
2023-05-15T09:45:29.208Z,15.20
2023-05-15T09:47:59.358Z,15.20
2023-05-15T09:50:33.741Z,15.30
2023-05-15T09:53:01.748Z,15.40
2023-05-15T09:55:32.816Z,15.30
2023-05-15T09:58:08.656Z,15.60
2023-05-15T10:00:48.628Z,15.50
2023-05-15T10:03:19.333Z,15.80
2023-05-15T10:05:47.509Z,15.70
2023-05-15T10:08:16.001Z,14.90
2023-05-15T10:10:44.921Z,15.80
2023-05-15T10:13:12.798Z,15.80
2023-05-15T10:15:42.078Z,16.10
2023-05-15T10:18:11.273Z,15.80
2023-05-15T10:20:39.861Z,15.90
2023-05-15T10:23:12.641Z,15.90
2023-05-15T10:25:50.137Z,15.90
2023-05-15T10:28:18.577Z,15.80
2023-05-15T10:30:47.871Z,15.90
2023-05-15T10:33:16.430Z,16.10
2023-05-15T10:35:45.540Z,16.00
2023-05-15T10:38:13.871Z,16.00
2023-05-15T10:40:42.512Z,16.10
2023-05-15T10:43:11.410Z,16.20
2023-05-15T10:45:40.265Z,16.30
2023-05-15T10:48:11.497Z,16.30
2023-05-15T10:50:39.257Z,16.40
2023-05-15T10:53:08.750Z,16.50
2023-05-15T10:55:37.339Z,16.60
2023-05-15T10:58:09.657Z,16.70
2023-05-15T11:00:43.027Z,16.60
2023-05-15T11:03:14.324Z,16.60
2023-05-15T11:06:10.506Z,16.60
2023-05-15T11:08:40.783Z,16.60
2023-05-15T11:11:08.556Z,16.60
2023-05-15T11:17:03.652Z,16.80
2023-05-15T11:19:54.277Z,16.90
2023-05-15T11:22:27.356Z,16.80
2023-05-15T11:24:58.317Z,17.00
2023-05-15T11:27:29.256Z,17.10
2023-05-15T11:30:09.904Z,16.90
2023-05-15T11:32:47.828Z,17.20
2023-05-15T11:35:21.411Z,17.30
2023-05-15T11:37:50.623Z,17.40
2023-05-15T11:40:22.871Z,17.30
2023-05-15T11:43:01.884Z,17.40
2023-05-15T11:45:30.960Z,17.60
2023-05-15T11:48:02.113Z,17.70
2023-05-15T11:50:32.313Z,17.60
2023-05-15T11:53:03.750Z,17.70
2023-05-15T11:55:33.361Z,17.80
2023-05-15T11:58:01.602Z,17.80
2023-05-15T12:00:29.777Z,17.90
2023-05-15T12:02:58.005Z,17.80
2023-05-15T12:05:25.817Z,17.90
2023-05-15T12:07:53.732Z,18.10
2023-05-15T12:10:21.472Z,17.90
2023-05-15T12:12:49.586Z,18.10
2023-05-15T12:15:17.944Z,18.10
2023-05-15T12:17:46.070Z,18.20
2023-05-15T12:20:18.597Z,18.40
2023-05-15T12:22:46.442Z,18.50
2023-05-15T12:25:16.998Z,18.50
2023-05-15T12:27:45.078Z,18.30
2023-05-15T12:30:14.899Z,18.70
2023-05-15T12:32:43.206Z,18.80
2023-05-15T12:35:11.614Z,18.80
2023-05-15T12:37:39.549Z,19.20
2023-05-15T12:40:11.043Z,18.90
2023-05-15T12:42:43.186Z,19.00
2023-05-15T12:45:14.945Z,19.10
2023-05-15T12:47:43.333Z,19.10
2023-05-15T12:50:15.653Z,19.10
2023-05-15T12:52:50.223Z,19.20
2023-05-15T12:55:18.833Z,19.00
2023-05-15T12:57:46.580Z,19.40
2023-05-15T13:00:16.534Z,19.50
2023-05-15T13:02:45.152Z,19.50
2023-05-15T13:05:13.221Z,19.30
2023-05-15T13:07:42.962Z,19.50
2023-05-15T13:10:12.530Z,19.50
2023-05-15T13:12:43.134Z,19.60
2023-05-15T13:15:24.825Z,19.60
2023-05-15T13:17:58.753Z,19.70
2023-05-15T13:20:27.811Z,19.80
2023-05-15T13:22:55.785Z,19.80
2023-05-15T13:25:23.598Z,19.70
2023-05-15T13:27:51.977Z,19.80
2023-05-15T13:30:20.497Z,19.80
2023-05-15T13:32:48.242Z,19.90
2023-05-15T13:35:16.241Z,20.00
2023-05-15T13:37:44.131Z,19.80
2023-05-15T13:40:13.261Z,20.00
2023-05-15T13:42:43.102Z,20.10
2023-05-15T13:45:13.087Z,20.30
2023-05-15T13:47:41.170Z,20.10
2023-05-15T13:50:12.072Z,20.20
2023-05-15T13:52:41.104Z,20.20
2023-05-15T13:55:10.596Z,20.00
2023-05-15T13:57:39.377Z,20.10
2023-05-15T14:00:11.878Z,20.30
2023-05-15T14:02:39.996Z,20.10
2023-05-15T14:05:09.322Z,20.00
2023-05-15T14:07:37.772Z,19.90
2023-05-15T14:10:07.728Z,19.80
2023-05-15T14:12:36.171Z,19.80
2023-05-15T14:15:05.874Z,19.70
2023-05-15T14:17:34.407Z,19.60
2023-05-15T14:20:02.268Z,19.70
2023-05-15T14:22:30.100Z,19.80
2023-05-15T14:24:58.001Z,19.80
2023-05-15T14:27:25.842Z,19.70
2023-05-15T14:29:53.536Z,19.90
2023-05-15T14:32:21.286Z,19.80
2023-05-15T14:34:49.120Z,19.70
2023-05-15T14:37:17.675Z,19.60
2023-05-15T14:39:45.441Z,19.90
2023-05-15T14:42:13.295Z,20.00
2023-05-15T14:44:40.963Z,20.20
2023-05-15T14:47:11.692Z,20.00
2023-05-15T14:49:40.779Z,20.10
2023-05-15T14:52:09.644Z,20.10
2023-05-15T14:57:27.970Z,19.80
2023-05-15T14:59:55.781Z,20.10
2023-05-15T15:02:23.698Z,19.80
2023-05-15T15:04:51.571Z,20.20
2023-05-15T15:07:19.381Z,20.30
2023-05-15T15:09:47.115Z,20.40
2023-05-15T15:12:14.809Z,20.30
2023-05-15T15:14:42.500Z,20.20
2023-05-15T15:17:10.243Z,20.30
2023-05-15T15:19:38.019Z,20.40
2023-05-15T15:22:06.127Z,20.20
2023-05-15T15:24:33.874Z,20.10
2023-05-15T15:27:01.757Z,20.20
2023-05-15T15:29:29.532Z,20.20
2023-05-15T15:31:57.315Z,20.30
2023-05-15T15:34:25.158Z,20.30
2023-05-15T15:36:53.105Z,20.20
2023-05-15T15:39:20.864Z,20.30
2023-05-15T15:41:48.594Z,20.40
2023-05-15T15:44:16.332Z,20.50
2023-05-15T15:46:44.641Z,20.50
2023-05-15T15:49:12.383Z,20.30
2023-05-15T15:51:40.848Z,20.70
2023-05-15T15:54:08.578Z,20.80
2023-05-15T15:56:36.544Z,20.90
2023-05-15T15:59:04.416Z,20.90
2023-05-15T16:01:33.465Z,21.00
2023-05-15T16:04:01.277Z,21.20
2023-05-15T16:06:29.140Z,21.40
2023-05-15T16:08:57.222Z,21.20
2023-05-15T16:11:25.325Z,21.20
2023-05-15T16:13:53.262Z,21.20
2023-05-15T16:16:21.651Z,21.20
2023-05-15T16:18:49.569Z,21.20
2023-05-15T16:21:17.382Z,21.30
2023-05-15T16:23:45.162Z,21.40
2023-05-15T16:26:13.236Z,21.30
2023-05-15T16:28:41.911Z,21.20
2023-05-15T16:31:09.780Z,21.30
2023-05-15T16:33:37.608Z,21.30
2023-05-15T16:36:06.663Z,21.30
2023-05-15T16:38:35.455Z,21.20
2023-05-15T16:41:03.440Z,21.20
2023-05-15T16:43:31.362Z,21.10
2023-05-15T16:45:59.200Z,20.90
2023-05-15T16:48:27.412Z,20.80
2023-05-15T16:50:55.413Z,20.50
2023-05-15T16:53:23.293Z,20.30
2023-05-15T16:55:51.157Z,20.00
2023-05-15T16:58:19.446Z,19.80
2023-05-15T17:00:47.497Z,19.60
2023-05-15T17:03:16.883Z,19.30
2023-05-15T17:05:46.629Z,19.10
2023-05-15T17:08:14.529Z,19.00
2023-05-15T17:10:42.416Z,18.90
2023-05-15T17:13:10.344Z,18.90
2023-05-15T17:15:38.239Z,18.60
2023-05-15T17:18:06.363Z,18.40
2023-05-15T17:20:34.262Z,18.40
2023-05-15T17:23:02.162Z,18.30
2023-05-15T17:25:30.216Z,18.40
2023-05-15T17:27:58.283Z,18.40
2023-05-15T17:30:26.360Z,18.20
2023-05-15T17:38:30.771Z,18.30
2023-05-15T17:40:59.249Z,18.40
2023-05-15T17:43:27.050Z,18.50
2023-05-15T17:45:54.964Z,18.60
2023-05-15T17:48:22.983Z,18.60
2023-05-15T17:50:51.067Z,18.70
2023-05-15T17:53:19.013Z,18.80
2023-05-15T17:55:47.270Z,18.70
2023-05-15T17:58:15.235Z,18.70
2023-05-15T18:00:43.244Z,18.80
2023-05-15T18:03:11.197Z,19.20
2023-05-15T18:05:39.365Z,18.90
2023-05-15T18:08:07.272Z,18.80
2023-05-15T18:10:35.353Z,18.50
2023-05-15T18:13:03.178Z,18.40
2023-05-15T18:15:31.549Z,18.10
2023-05-15T18:17:59.547Z,17.90
2023-05-15T18:20:27.557Z,18.10
2023-05-15T18:22:55.777Z,17.80
2023-05-15T18:25:23.802Z,17.80
2023-05-15T18:27:52.158Z,18.00
2023-05-15T18:30:20.297Z,17.60
2023-05-15T18:32:48.555Z,17.50
2023-05-15T18:35:16.771Z,17.40
2023-05-15T18:37:44.744Z,17.30
2023-05-15T18:40:13.907Z,17.40
2023-05-15T18:42:41.917Z,17.30
2023-05-15T18:45:12.497Z,17.40
2023-05-15T18:47:40.896Z,17.40
2023-05-15T18:50:11.272Z,17.40
2023-05-15T18:52:39.811Z,17.20
2023-05-15T18:55:10.373Z,17.20
2023-05-15T18:57:38.773Z,17.20
2023-05-15T19:00:08.905Z,17.10
2023-05-15T19:05:27.105Z,17.10
2023-05-15T19:07:55.190Z,17.00
2023-05-15T19:10:23.070Z,16.90
2023-05-15T19:12:50.997Z,17.00
2023-05-15T19:15:19.042Z,16.90
2023-05-15T19:17:47.034Z,16.90
2023-05-15T19:20:15.505Z,16.90
2023-05-15T19:22:43.494Z,16.90
2023-05-15T19:25:11.700Z,16.90
2023-05-15T19:27:39.868Z,16.70
2023-05-15T19:33:00.271Z,16.90
2023-05-15T19:35:28.413Z,16.80
2023-05-15T19:37:56.526Z,16.90
2023-05-15T19:43:10.812Z,16.70
2023-05-15T19:45:41.614Z,16.70
2023-05-15T19:48:10.254Z,16.70
2023-05-15T19:50:39.549Z,16.50
2023-05-15T19:53:07.858Z,16.30
2023-05-15T19:55:35.864Z,16.50
2023-05-15T19:58:04.418Z,16.40
2023-05-15T20:03:19.911Z,16.30
2023-05-15T20:05:48.134Z,16.30
2023-05-15T20:08:16.474Z,16.30
2023-05-15T20:10:50.288Z,16.40
2023-05-15T20:13:19.048Z,16.30
2023-05-15T20:15:47.549Z,16.30
2023-05-15T20:18:15.546Z,16.20
2023-05-15T20:23:29.288Z,16.30
2023-05-15T20:25:57.567Z,16.30
2023-05-15T20:28:26.625Z,16.20
2023-05-15T20:30:56.569Z,16.20
2023-05-15T20:33:24.827Z,16.30
2023-05-15T20:35:53.404Z,16.40
2023-05-15T20:38:23.594Z,16.20
2023-05-15T20:40:52.503Z,16.40
2023-05-15T20:43:20.464Z,16.30
2023-05-15T20:45:48.528Z,16.20
2023-05-15T20:48:16.667Z,16.20
2023-05-15T20:50:44.620Z,16.20
2023-05-15T20:53:12.926Z,16.30
2023-05-15T20:55:41.023Z,16.20
2023-05-15T20:58:09.393Z,16.20
2023-05-15T21:00:37.547Z,16.10
2023-05-15T21:03:05.735Z,16.10
2023-05-15T21:05:33.903Z,15.80
2023-05-15T21:08:02.226Z,15.90
2023-05-15T21:10:30.265Z,16.00
2023-05-15T21:12:59.513Z,16.00
2023-05-15T21:17:55.494Z,15.80
2023-05-15T21:20:23.693Z,15.70
2023-05-15T21:22:51.803Z,15.70
2023-05-15T21:25:20.170Z,15.80
2023-05-15T21:27:48.111Z,15.70
2023-05-15T21:33:05.998Z,15.70
2023-05-15T21:38:21.022Z,15.60
2023-05-15T21:43:16.485Z,15.60
2023-05-15T21:45:44.551Z,15.50
2023-05-15T21:48:12.396Z,15.30
2023-05-15T21:50:40.471Z,15.40
2023-05-15T21:55:36.217Z,15.30
2023-05-15T21:58:04.106Z,15.30
2023-05-15T22:00:31.914Z,15.50
2023-05-15T22:03:00.071Z,15.20
2023-05-15T22:08:14.535Z,15.20
2023-05-15T22:10:42.423Z,15.20
2023-05-15T22:13:10.464Z,15.10
2023-05-15T22:15:38.425Z,15.10
2023-05-15T22:18:07.467Z,15.00
2023-05-15T22:20:36.407Z,14.90
2023-05-15T22:25:32.149Z,15.90
2023-05-15T22:27:59.974Z,16.20
2023-05-15T22:30:28.325Z,15.90
2023-05-15T22:32:56.500Z,15.70
2023-05-15T22:35:24.613Z,15.50
2023-05-15T22:37:52.854Z,15.20
2023-05-15T22:40:21.673Z,15.40
2023-05-15T22:42:49.560Z,15.20
2023-05-15T22:45:18.688Z,14.70
2023-05-15T22:47:46.901Z,15.00
2023-05-15T22:50:14.874Z,15.10
2023-05-15T22:52:42.612Z,15.00
2023-05-15T22:55:12.206Z,15.00
2023-05-15T22:57:39.960Z,14.90
2023-05-15T23:00:10.281Z,14.80
2023-05-15T23:02:38.781Z,14.80
2023-05-15T23:05:08.195Z,14.80
2023-05-15T23:07:35.942Z,14.60
2023-05-15T23:10:04.665Z,14.90
2023-05-15T23:12:32.685Z,14.70
2023-05-15T23:15:01.006Z,14.70
2023-05-15T23:17:28.785Z,14.50
2023-05-15T23:22:24.314Z,14.60
2023-05-15T23:24:52.090Z,14.60
2023-05-15T23:27:20.112Z,14.60
2023-05-15T23:29:47.918Z,14.60
2023-05-15T23:35:02.612Z,14.50
2023-05-15T23:37:30.370Z,14.40
2023-05-15T23:45:30.916Z,14.20
2023-05-15T23:50:46.295Z,14.20
2023-05-15T23:56:02.010Z,14.30
2023-05-15T23:58:30.474Z,14.30
